Caracol, Brazil
Current Conditions -  °F | °C
As of 10:00 PM on Friday 21 Nov 2014 (Local Time) from SBPL Reporting Station
Clear Clear  
Wind Chill: 84°   Ceiling: Unl
Heat Index: 87°   Visibility: 6mi
Dew Point: 68°   Wind: 7mph
Humidity: 58%   Direction: 180°S
Pressure: 29.94"   Gusts: NA
Location:  9.28°S, 43.33°W
Report Text: SBPL 220100Z 18006KT CAVOK 29/20 Q1014
Loading
Personal Weather Stations






























Interactive Weather Map New forecast layout! Learn more

10-Day Weather Forecast

Advertisements
Track Severe Weather on mobile